createdAt,value
2023-04-30T00:04:35.566Z,80.60
2023-04-30T00:09:37.715Z,80.10
2023-04-30T00:14:40.134Z,80.10
2023-04-30T00:19:42.968Z,81.10
2023-04-30T00:24:45.522Z,82.00
2023-04-30T00:29:47.721Z,79.00
2023-04-30T00:34:50.112Z,81.40
2023-04-30T00:39:52.850Z,80.50
2023-04-30T00:44:55.209Z,81.20
2023-04-30T00:49:58.798Z,80.20
2023-04-30T00:55:01.174Z,81.40
2023-04-30T01:00:04.471Z,81.80
2023-04-30T01:05:08.115Z,80.00
2023-04-30T01:10:12.507Z,79.10
2023-04-30T01:15:27.627Z,79.40
2023-04-30T01:20:32.338Z,81.60
2023-04-30T01:25:58.366Z,78.90
2023-04-30T01:31:00.673Z,80.10
2023-04-30T01:36:36.059Z,80.30
2023-04-30T01:42:02.418Z,80.80
2023-04-30T01:47:25.775Z,81.90
2023-04-30T01:52:45.119Z,80.20
2023-04-30T01:58:00.704Z,79.40
2023-04-30T02:03:03.284Z,83.20
2023-04-30T02:08:06.354Z,89.10
2023-04-30T02:13:08.999Z,81.80
2023-04-30T02:18:11.321Z,81.70
2023-04-30T02:23:13.595Z,80.50
2023-04-30T02:28:15.813Z,82.50
2023-04-30T02:33:17.954Z,80.40
2023-04-30T02:38:20.058Z,81.00
2023-04-30T02:43:22.481Z,79.40
2023-04-30T02:48:24.964Z,86.90
2023-04-30T02:53:27.558Z,85.30
2023-04-30T02:58:29.737Z,83.00
2023-04-30T03:03:32.242Z,80.70
2023-04-30T03:08:34.544Z,81.80
2023-04-30T03:13:36.766Z,80.90
2023-04-30T03:18:38.911Z,83.00
2023-04-30T03:23:41.178Z,80.20
2023-04-30T03:28:43.457Z,83.10
2023-04-30T03:33:45.750Z,80.40
2023-04-30T03:38:47.964Z,80.70
2023-04-30T03:43:50.290Z,80.90
2023-04-30T03:48:52.734Z,81.40
2023-04-30T03:53:56.033Z,81.70
2023-04-30T03:58:58.530Z,82.60
2023-04-30T04:04:01.624Z,82.00
2023-04-30T04:09:04.950Z,81.60
2023-04-30T04:14:07.125Z,82.70
2023-04-30T04:19:09.274Z,82.20
2023-04-30T04:24:11.504Z,81.00
2023-04-30T04:29:13.762Z,81.00
2023-04-30T04:34:16.958Z,82.10
2023-04-30T04:39:19.045Z,82.10
2023-04-30T04:44:21.881Z,82.60
2023-04-30T04:49:24.240Z,86.10
2023-04-30T04:54:27.659Z,82.50
2023-04-30T04:59:30.700Z,83.20
2023-04-30T05:04:33.019Z,82.90
2023-04-30T05:09:35.105Z,82.60
2023-04-30T05:14:37.581Z,83.30
2023-04-30T05:19:39.668Z,82.20
2023-04-30T05:24:41.839Z,82.30
2023-04-30T05:29:44.061Z,81.40
2023-04-30T05:34:46.200Z,82.40
2023-04-30T05:39:48.828Z,82.30
2023-04-30T05:44:51.131Z,81.20
2023-04-30T05:49:53.512Z,86.30
2023-04-30T05:54:55.858Z,82.80
2023-04-30T05:59:57.994Z,80.20
2023-04-30T06:05:02.190Z,85.10
2023-04-30T06:10:05.092Z,80.10
2023-04-30T06:15:08.131Z,80.10
2023-04-30T06:20:10.909Z,79.70
2023-04-30T06:25:13.112Z,83.30
2023-04-30T06:30:15.575Z,87.30
2023-04-30T06:35:17.788Z,85.20
2023-04-30T06:40:20.779Z,77.70
2023-04-30T06:45:23.067Z,78.70
2023-04-30T06:50:25.174Z,80.40
2023-04-30T06:55:28.265Z,77.40
2023-04-30T07:00:33.048Z,77.90
2023-04-30T07:05:35.397Z,81.40
2023-04-30T07:10:37.568Z,81.60
2023-04-30T07:15:40.395Z,76.70
2023-04-30T07:20:42.646Z,73.00
2023-04-30T07:25:44.924Z,73.10
2023-04-30T07:30:47.278Z,76.10
2023-04-30T07:35:49.445Z,71.90
2023-04-30T07:40:51.629Z,77.60
2023-04-30T07:45:54.845Z,74.20
2023-04-30T07:50:57.711Z,73.70
2023-04-30T07:55:59.915Z,71.30
2023-04-30T08:01:02.106Z,75.60
2023-04-30T08:06:06.162Z,69.50
2023-04-30T08:11:08.364Z,72.70
2023-04-30T08:16:10.550Z,65.10
2023-04-30T08:21:13.980Z,65.00
2023-04-30T08:26:16.096Z,68.30
2023-04-30T08:31:21.274Z,65.00
2023-04-30T08:36:23.511Z,61.80
2023-04-30T08:41:30.599Z,65.00
2023-04-30T08:46:35.751Z,68.00
2023-04-30T08:51:38.233Z,64.00
2023-04-30T08:56:41.556Z,60.70
2023-04-30T09:01:43.937Z,61.30
2023-04-30T09:06:46.427Z,54.90
2023-04-30T09:11:48.624Z,56.10
2023-04-30T09:16:53.016Z,54.90
2023-04-30T09:21:56.529Z,58.50
2023-04-30T09:26:58.768Z,55.60
2023-04-30T09:32:10.094Z,55.70
2023-04-30T09:37:12.616Z,61.70
2023-04-30T09:42:15.134Z,64.00
2023-04-30T09:47:20.617Z,61.40
2023-04-30T09:52:23.669Z,56.70
2023-04-30T09:57:30.578Z,53.20
2023-04-30T10:02:34.283Z,64.20
2023-04-30T10:07:40.908Z,55.30
2023-04-30T10:12:53.503Z,55.40
2023-04-30T10:18:05.955Z,61.40
2023-04-30T10:23:08.814Z,55.10
2023-04-30T10:28:11.857Z,63.90
2023-04-30T10:33:17.117Z,53.40
2023-04-30T10:38:25.442Z,54.30
2023-04-30T10:43:30.641Z,60.70
2023-04-30T10:48:36.081Z,54.10
2023-04-30T10:53:40.442Z,54.40
2023-04-30T10:58:44.296Z,54.00
2023-04-30T11:04:10.710Z,56.40
2023-04-30T11:09:13.098Z,53.90
2023-04-30T11:14:21.615Z,58.90
2023-04-30T11:19:25.250Z,54.80
2023-04-30T11:24:55.513Z,55.00
2023-04-30T11:29:59.485Z,55.00
2023-04-30T11:35:06.868Z,52.90
2023-04-30T11:40:12.073Z,54.60
2023-04-30T11:45:23.567Z,54.50
2023-04-30T11:50:29.690Z,58.00
2023-04-30T11:55:32.121Z,57.40
2023-04-30T12:00:34.658Z,58.50
2023-04-30T12:05:37.091Z,56.00
2023-04-30T12:10:39.433Z,54.10
2023-04-30T12:15:41.794Z,53.80
2023-04-30T12:20:44.575Z,54.50
2023-04-30T12:25:47.822Z,55.30
2023-04-30T12:30:50.025Z,56.00
2023-04-30T12:35:54.137Z,58.00
2023-04-30T12:40:57.248Z,54.20
2023-04-30T12:45:59.816Z,53.80
2023-04-30T12:51:03.066Z,56.10
2023-04-30T12:56:18.169Z,54.70
2023-04-30T13:01:23.241Z,53.10
2023-04-30T13:06:25.735Z,53.80
2023-04-30T13:11:28.418Z,54.50
2023-04-30T13:16:31.980Z,55.30
2023-04-30T13:21:34.218Z,55.40
2023-04-30T13:26:37.139Z,54.20
2023-04-30T13:31:39.240Z,52.90
2023-04-30T13:36:41.425Z,54.00
2023-04-30T13:41:43.547Z,51.00
2023-04-30T13:46:45.865Z,50.40
2023-04-30T13:51:48.128Z,52.00
2023-04-30T13:56:50.584Z,52.80
2023-04-30T14:01:52.837Z,50.30
2023-04-30T14:06:56.881Z,51.10
2023-04-30T14:11:59.272Z,53.40
2023-04-30T14:17:02.165Z,54.20
2023-04-30T14:22:04.441Z,55.10
2023-04-30T14:27:07.105Z,53.20
2023-04-30T14:32:09.329Z,55.00
2023-04-30T14:37:11.858Z,52.10
2023-04-30T14:42:14.330Z,56.60
2023-04-30T14:47:16.743Z,51.40
2023-04-30T14:52:19.998Z,50.50
2023-04-30T14:57:23.618Z,50.30
2023-04-30T15:02:25.884Z,49.80
2023-04-30T15:07:28.316Z,49.10
2023-04-30T15:12:30.492Z,49.60
2023-04-30T15:17:37.267Z,51.60
2023-04-30T15:22:40.620Z,48.60
2023-04-30T15:27:43.002Z,48.00
2023-04-30T15:32:47.655Z,49.40
2023-04-30T15:37:51.751Z,49.40
2023-04-30T15:42:53.857Z,50.00
2023-04-30T15:47:56.129Z,51.70
2023-04-30T15:52:58.632Z,50.90
2023-04-30T15:58:01.057Z,51.40
2023-04-30T16:03:03.541Z,53.70
2023-04-30T16:08:09.585Z,50.70
2023-04-30T16:13:11.841Z,51.50
2023-04-30T16:18:14.027Z,52.90
2023-04-30T16:23:16.855Z,50.90
2023-04-30T16:28:21.528Z,51.20
2023-04-30T16:33:25.411Z,51.80
2023-04-30T16:38:27.726Z,51.60
2023-04-30T16:43:29.848Z,52.10
2023-04-30T16:48:32.012Z,52.50
2023-04-30T16:53:36.298Z,53.30
2023-04-30T16:58:41.398Z,56.60
2023-04-30T17:03:43.753Z,53.70
2023-04-30T17:08:46.137Z,53.70
2023-04-30T17:13:48.544Z,53.30
2023-04-30T17:18:50.656Z,52.60
2023-04-30T17:23:52.942Z,52.70
2023-04-30T17:28:55.065Z,53.30
2023-04-30T17:33:57.337Z,54.40
2023-04-30T17:39:02.791Z,53.90
2023-04-30T17:44:05.110Z,55.20
2023-04-30T17:49:07.946Z,54.30
2023-04-30T17:54:10.233Z,54.10
2023-04-30T17:59:12.738Z,55.10
2023-04-30T18:04:20.817Z,53.80
2023-04-30T18:09:24.084Z,53.70
2023-04-30T18:14:26.168Z,54.30
2023-04-30T18:19:28.478Z,54.30
2023-04-30T18:24:30.890Z,54.80
2023-04-30T18:29:33.149Z,54.90
2023-04-30T18:34:35.354Z,55.00
2023-04-30T18:39:37.577Z,55.40
2023-04-30T18:44:39.828Z,55.10
2023-04-30T18:49:43.319Z,55.10
2023-04-30T18:54:45.535Z,56.10
2023-04-30T18:59:48.304Z,55.80
2023-04-30T19:04:52.355Z,56.10
2023-04-30T19:09:55.856Z,57.10
2023-04-30T19:14:58.987Z,58.40
2023-04-30T19:20:01.281Z,59.20
2023-04-30T19:25:04.258Z,59.80
2023-04-30T19:30:07.457Z,60.70
2023-04-30T19:35:09.983Z,61.00
2023-04-30T19:40:12.991Z,61.50
2023-04-30T19:45:15.195Z,61.00
2023-04-30T19:50:17.654Z,61.10
2023-04-30T19:55:19.973Z,60.90
2023-04-30T20:00:23.484Z,62.10
2023-04-30T20:05:25.875Z,62.10
2023-04-30T20:10:28.195Z,61.80
2023-04-30T20:15:30.882Z,62.80
2023-04-30T20:20:33.245Z,63.80
2023-04-30T20:25:35.828Z,64.30
2023-04-30T20:30:38.141Z,65.90
2023-04-30T20:35:47.654Z,64.20
2023-04-30T20:40:50.583Z,64.60
2023-04-30T20:45:59.025Z,64.30
2023-04-30T20:51:01.393Z,65.70
2023-04-30T20:56:04.590Z,64.60
2023-04-30T21:01:07.474Z,64.70
2023-04-30T21:06:10.310Z,66.40
2023-04-30T21:11:14.300Z,65.90
2023-04-30T21:16:16.562Z,65.00
2023-04-30T21:21:18.880Z,67.40
2023-04-30T21:26:21.907Z,65.90
2023-04-30T21:31:24.880Z,66.00
2023-04-30T21:36:29.240Z,65.70
2023-04-30T21:41:32.332Z,65.50
2023-04-30T21:46:34.484Z,65.70
2023-04-30T21:56:41.367Z,67.20
2023-04-30T22:01:43.578Z,65.80
2023-04-30T22:06:46.378Z,69.20
2023-04-30T22:11:49.710Z,68.40
2023-04-30T22:16:51.992Z,67.00
2023-04-30T22:21:54.157Z,66.40
2023-04-30T22:26:56.543Z,68.10
2023-04-30T22:31:58.740Z,67.40
2023-04-30T22:37:01.005Z,67.90
2023-04-30T22:42:05.050Z,68.30
2023-04-30T22:47:07.376Z,68.10
2023-04-30T22:52:09.806Z,70.60
2023-04-30T22:57:12.239Z,68.70
2023-04-30T23:02:15.149Z,69.80
2023-04-30T23:07:17.481Z,68.70
2023-04-30T23:12:19.618Z,69.30
2023-04-30T23:17:23.452Z,69.50
2023-04-30T23:22:25.773Z,70.60
2023-04-30T23:27:28.900Z,68.20
2023-04-30T23:32:31.696Z,68.10
2023-04-30T23:37:35.303Z,67.50
2023-04-30T23:42:37.404Z,68.00
2023-04-30T23:47:39.837Z,68.20
2023-04-30T23:52:41.982Z,69.70
2023-04-30T23:57:44.200Z,72.40
